Time;durP1;ratioP1;P1;durP2;ratioP2;P2;SDS_P1;SDS_P2;PMS_P1;PMS_P2;Temp;Humidity;BMP_temperature;BMP_pressure;BME280_temperature;BME280_humidity;BME280_pressure;Samples;Min_cycle;Max_cycle;Signal;HPM_P1;HPM_P2
2022/01/28 00:00:41;;;;;;;333.00;77.65;;;;;;;0.67;67.59;100212.38;339912;28;1558;-68
2022/01/28 00:01:00;;;;;;;332.77;76.90;;;;;;;0.67;67.95;100209.78;342388;28;1784;-68
2022/01/28 00:01:14;;;;;;;334.05;77.75;;;;;;;0.68;67.25;100208.94;342442;28;1623;-68
2022/01/28 00:01:34;;;;;;;334.98;78.07;;;;;;;0.69;67.03;100210.69;338382;29;1358;-68
2022/01/28 00:01:54;;;;;;;333.34;77.24;;;;;;;0.71;67.66;100214.13;338451;29;1941;-67
2022/01/28 00:02:15;;;;;;;330.10;76.72;;;;;;;0.70;67.59;100209.81;338652;29;1135;-67
2022/01/28 00:02:41;;;;;;;333.05;79.03;;;;;;;0.71;68.30;100211.56;337672;29;901;-68
2022/01/28 00:02:58;;;;;;;331.73;77.28;;;;;;;0.68;67.87;100213.22;341378;28;1611;-67
2022/01/28 00:03:10;;;;;;;333.00;77.32;;;;;;;0.66;67.40;100208.06;341014;28;857;-67
2022/01/28 00:03:20;;;;;;;333.13;77.55;;;;;;;0.68;67.04;100214.09;342811;28;2130;-67
2022/01/28 00:03:32;;;;;;;330.57;75.70;;;;;;;0.66;67.60;100211.50;341156;28;1526;-67
2022/01/28 00:03:42;;;;;;;331.20;76.28;;;;;;;0.66;66.83;100214.09;340047;29;1002;-67
2022/01/28 00:04:01;;;;;;;330.83;76.13;;;;;;;0.66;68.01;100210.66;339713;28;2022;-68
2022/01/28 00:04:13;;;;;;;332.33;77.22;;;;;;;0.65;66.93;100214.06;337356;29;1000;-68
2022/01/28 00:04:24;;;;;;;333.00;78.25;;;;;;;0.66;67.43;100211.50;336999;29;2159;-68
2022/01/28 00:04:34;;;;;;;333.23;77.60;;;;;;;0.64;67.58;100207.19;336768;29;2043;-68
2022/01/28 00:04:44;;;;;;;333.48;77.55;;;;;;;0.67;66.97;100212.38;337294;29;1996;-68
2022/01/28 00:04:55;;;;;;;333.87;77.70;;;;;;;0.68;67.34;100203.78;337141;29;1540;-67
2022/01/28 00:05:13;;;;;;;335.20;78.40;;;;;;;0.69;67.84;100209.81;338722;29;2089;-68
2022/01/28 00:05:23;;;;;;;333.73;78.03;;;;;;;0.67;67.52;100212.38;338565;29;1465;-68
2022/01/28 00:05:34;;;;;;;330.33;77.70;;;;;;;0.66;67.18;100205.50;338742;29;1665;-68
2022/01/28 00:05:45;;;;;;;328.83;77.85;;;;;;;0.66;66.95;100202.91;341202;28;1822;-68
2022/01/28 00:05:55;;;;;;;331.08;77.63;;;;;;;0.66;68.14;100208.94;339878;29;1338;-68
2022/01/28 00:06:07;;;;;;;332.97;78.20;;;;;;;0.67;67.45;100207.22;339913;29;2323;-68
2022/01/28 00:06:18;;;;;;;332.27;77.95;;;;;;;0.65;67.65;100208.91;339891;28;1669;-68
2022/01/28 00:06:28;;;;;;;330.35;77.25;;;;;;;0.65;67.64;100206.34;339878;29;1280;-68
2022/01/28 00:06:38;;;;;;;329.80;76.93;;;;;;;0.66;67.38;100208.06;339866;29;1578;-68
2022/01/28 00:06:49;;;;;;;330.23;77.17;;;;;;;0.65;67.76;100203.78;339954;29;2390;-68
2022/01/28 00:06:59;;;;;;;330.17;78.40;;;;;;;0.65;67.98;100201.19;339490;29;1898;-69
2022/01/28 00:07:10;;;;;;;331.73;78.53;;;;;;;0.65;66.97;100206.34;339313;29;1589;-68
2022/01/28 00:07:20;;;;;;;332.87;79.40;;;;;;;0.65;67.92;100206.34;336650;29;2113;-68
2022/01/28 00:07:30;;;;;;;333.70;79.72;;;;;;;0.63;67.54;100206.34;338945;28;1184;-68
2022/01/28 00:07:41;;;;;;;333.30;80.33;;;;;;;0.62;68.21;100203.75;340934;28;881;-68
2022/01/28 00:07:52;;;;;;;332.20;79.30;;;;;;;0.66;67.13;100205.50;339677;29;1587;-69
2022/01/28 00:08:03;;;;;;;332.00;78.55;;;;;;;0.64;67.75;100202.03;335678;29;2016;-68
2022/01/28 00:08:14;;;;;;;331.58;77.24;;;;;;;0.62;67.52;100204.59;338444;29;1570;-68
2022/01/28 00:08:25;;;;;;;332.50;77.83;;;;;;;0.59;67.72;100204.56;338632;29;1921;-68
2022/01/28 00:08:35;;;;;;;333.83;77.32;;;;;;;0.59;67.89;100203.72;339882;29;2253;-68
2022/01/28 00:08:45;;;;;;;333.57;78.83;;;;;;;0.58;68.15;100196.84;341164;28;1369;-68
2022/01/28 00:08:56;;;;;;;331.38;77.88;;;;;;;0.56;67.50;100201.09;339891;29;1745;-68
2022/01/28 00:09:06;;;;;;;329.47;77.43;;;;;;;0.58;67.72;100200.28;339426;29;2603;-68
2022/01/28 00:09:17;;;;;;;329.23;76.35;;;;;;;0.59;67.94;100196.84;335737;29;1758;-68
2022/01/28 00:09:27;;;;;;;331.40;77.97;;;;;;;0.59;67.77;100198.56;335780;29;1650;-68
2022/01/28 00:09:37;;;;;;;331.27;78.93;;;;;;;0.61;67.93;100197.72;336867;29;2109;-69
2022/01/28 00:09:48;;;;;;;332.53;78.77;;;;;;;0.62;67.93;100199.47;337217;29;1467;-66
2022/01/28 00:09:58;;;;;;;330.55;77.95;;;;;;;0.62;67.48;100201.16;337586;29;1045;-68
2022/01/28 00:10:08;;;;;;;332.00;77.00;;;;;;;0.60;67.47;100196.00;338742;29;1629;-66
2022/01/28 00:10:20;;;;;;;334.47;78.00;;;;;;;0.61;67.92;100196.88;339948;28;2029;-67
2022/01/28 00:10:31;;;;;;;338.00;78.18;;;;;;;0.59;68.03;100199.44;340958;28;1719;-68
2022/01/28 00:10:41;;;;;;;335.35;78.13;;;;;;;0.59;68.10;100194.28;341160;28;2003;-68
2022/01/28 00:10:53;;;;;;;332.15;77.03;;;;;;;0.61;67.68;100197.72;340567;28;1949;-68
2022/01/28 00:11:03;;;;;;;329.73;76.53;;;;;;;0.59;67.36;100196.84;341262;28;1886;-68
2022/01/28 00:11:13;;;;;;;330.23;76.37;;;;;;;0.61;67.85;100196.88;340265;29;869;-69
2022/01/28 00:11:24;;;;;;;328.90;75.15;;;;;;;0.61;67.18;100197.72;339976;28;2198;-68
2022/01/28 00:11:34;;;;;;;327.57;75.50;;;;;;;0.64;67.12;100196.88;337220;29;1658;-68
2022/01/28 00:11:44;;;;;;;328.13;76.28;;;;;;;0.61;67.70;100191.72;337332;29;1096;-68
2022/01/28 00:11:55;;;;;;;329.60;77.60;;;;;;;0.59;67.41;100193.41;338853;29;1476;-68
2022/01/28 00:12:07;;;;;;;328.42;77.28;;;;;;;0.57;67.43;100192.53;338829;29;1460;-68
2022/01/28 00:12:18;;;;;;;329.02;78.25;;;;;;;0.58;67.77;100196.84;338340;29;2001;-68
2022/01/28 00:12:29;;;;;;;329.13;79.57;;;;;;;0.57;68.24;100188.25;336135;29;1524;-68
2022/01/28 00:13:00;;;;;;;331.17;81.07;;;;;;;0.58;67.29;100202.84;339075;28;1846;-68
2022/01/28 00:13:31;;;;;;;328.75;75.78;;;;;;;0.59;67.57;100196.84;340930;28;1913;-68
2022/01/28 00:13:43;;;;;;;333.08;77.45;;;;;;;0.57;67.34;100192.53;341066;28;1352;-68
2022/01/28 00:14:00;;;;;;;331.52;77.03;;;;;;;0.56;68.01;100199.41;340967;28;1926;-68
2022/01/28 00:14:32;;;;;;;328.45;77.93;;;;;;;0.57;67.78;100197.69;340030;28;2057;-68
2022/01/28 00:15:05;;;;;;;328.35;75.70;;;;;;;0.58;67.32;100199.41;339791;29;2045;-68
2022/01/28 00:15:32;;;;;;;331.33;77.40;;;;;;;0.58;67.24;100192.56;339608;29;2068;-68
2022/01/28 00:16:20;;;;;;;334.80;76.88;;;;;;;0.53;67.12;100199.38;341017;28;1982;-68
2022/01/28 00:17:14;;;;;;;333.94;78.72;;;;;;;0.51;68.11;100193.34;343770;28;2028;-68
2022/01/28 00:18:26;;;;;;;331.85;78.95;;;;;;;0.57;67.90;100200.25;341146;28;1974;-68
2022/01/28 00:36:42;;;;;;;330.00;75.03;;;;;;;0.52;67.63;100192.50;343862;28;1047;-68
2022/01/28 00:38:13;;;;;;;328.58;76.13;;;;;;;0.52;67.36;100191.63;340714;28;1564;-68
2022/01/28 00:38:33;;;;;;;329.30;77.60;;;;;;;0.49;68.00;100191.59;340090;28;1197;-68
2022/01/28 00:38:45;;;;;;;329.73;78.47;;;;;;;0.48;68.04;100195.03;342235;28;1843;-68
2022/01/28 00:38:55;;;;;;;329.52;77.32;;;;;;;0.50;67.97;100185.59;343352;28;1716;-68
2022/01/28 00:39:06;;;;;;;330.03;76.63;;;;;;;0.50;67.66;100188.19;343067;28;1714;-68
2022/01/28 00:39:16;;;;;;;327.95;75.25;;;;;;;0.50;67.50;100193.31;342088;28;2005;-68
2022/01/28 00:39:26;;;;;;;327.00;75.03;;;;;;;0.49;67.32;100187.31;342117;28;1936;-68
2022/01/28 00:39:37;;;;;;;327.45;74.68;;;;;;;0.49;68.02;100192.47;342366;28;2286;-68
2022/01/28 00:39:47;;;;;;;327.03;74.03;;;;;;;0.48;68.04;100184.72;339714;29;1444;-68
2022/01/28 00:39:58;;;;;;;327.73;73.88;;;;;;;0.48;67.54;100189.88;339738;29;1868;-68
2022/01/28 00:40:09;;;;;;;326.03;73.67;;;;;;;0.49;67.88;100181.31;339747;29;2073;-68
2022/01/28 00:40:19;;;;;;;326.70;73.78;;;;;;;0.49;67.68;100186.44;340993;29;2338;-68
2022/01/28 00:40:30;;;;;;;326.77;74.40;;;;;;;0.49;67.86;100186.44;341047;29;2149;-68
2022/01/28 00:40:41;;;;;;;327.02;75.68;;;;;;;0.49;67.36;100186.44;342147;28;1867;-68
2022/01/28 00:40:51;;;;;;;326.70;75.33;;;;;;;0.48;67.96;100182.16;342489;28;1024;-68
2022/01/28 00:41:02;;;;;;;325.95;75.38;;;;;;;0.48;68.17;100183.00;340930;29;2140;-68
2022/01/28 00:41:12;;;;;;;328.70;76.05;;;;;;;0.48;67.63;100182.16;341579;28;2116;-68
2022/01/28 00:41:23;;;;;;;327.37;76.20;;;;;;;0.47;67.97;100180.44;341037;29;1707;-68
2022/01/28 00:41:33;;;;;;;328.02;75.22;;;;;;;0.46;68.48;100179.56;339821;29;1364;-68
2022/01/28 00:41:43;;;;;;;329.23;74.83;;;;;;;0.46;68.04;100184.72;339636;29;1662;-68
2022/01/28 00:41:54;;;;;;;329.77;75.15;;;;;;;0.46;67.73;100181.28;339689;29;1633;-68
2022/01/28 00:42:04;;;;;;;327.87;75.20;;;;;;;0.45;67.36;100176.97;339796;29;938;-67
2022/01/28 00:42:15;;;;;;;324.85;74.80;;;;;;;0.44;68.31;100177.81;339712;29;2332;-67
2022/01/28 00:42:25;;;;;;;324.23;74.15;;;;;;;0.43;67.66;100177.00;338269;29;2058;-67
2022/01/28 00:42:36;;;;;;;325.67;74.40;;;;;;;0.43;68.23;100177.00;338639;29;959;-68
2022/01/28 00:42:46;;;;;;;326.65;74.50;;;;;;;0.43;68.09;100170.97;338331;29;2310;-67
2022/01/28 00:42:57;;;;;;;327.57;74.13;;;;;;;0.42;67.91;100179.56;337941;29;1789;-67
2022/01/28 00:43:07;;;;;;;328.00;74.75;;;;;;;0.43;68.21;100176.13;339684;28;2089;-67
2022/01/28 00:43:17;;;;;;;326.93;74.93;;;;;;;0.42;68.20;100180.41;342403;28;1420;-67
2022/01/28 00:43:28;;;;;;;327.23;74.97;;;;;;;0.43;68.15;100176.13;342416;28;1671;-67
2022/01/28 00:43:38;;;;;;;328.73;75.37;;;;;;;0.43;67.66;100171.84;342521;28;2044;-67
2022/01/28 00:43:49;;;;;;;328.98;75.32;;;;;;;0.46;68.43;100181.28;339617;28;1608;-67
2022/01/28 00:43:59;;;;;;;329.70;76.17;;;;;;;0.46;68.20;100170.97;342203;28;1880;-67
2022/01/28 00:44:09;;;;;;;328.30;75.03;;;;;;;0.47;68.07;100177.84;342355;28;2053;-67
2022/01/28 00:44:20;;;;;;;330.25;75.07;;;;;;;0.48;67.62;100177.00;342405;28;1873;-67
2022/01/28 00:44:30;;;;;;;328.47;74.40;;;;;;;0.45;67.76;100174.41;338235;29;2048;-67
2022/01/28 00:44:41;;;;;;;328.98;75.00;;;;;;;0.44;67.92;100177.81;340826;28;1915;-67
2022/01/28 00:44:51;;;;;;;328.67;74.53;;;;;;;0.42;67.82;100175.25;341011;29;1189;-67
2022/01/28 00:45:02;;;;;;;329.60;75.15;;;;;;;0.42;67.45;100174.41;342038;28;2485;-67
2022/01/28 00:45:12;;;;;;;328.37;74.00;;;;;;;0.44;68.28;100177.81;342375;28;1757;-67
2022/01/28 00:45:22;;;;;;;330.55;74.68;;;;;;;0.43;67.83;100176.13;342387;28;1996;-67
2022/01/28 00:45:33;;;;;;;328.87;74.37;;;;;;;0.44;67.66;100173.53;341107;29;934;-67
2022/01/28 00:45:43;;;;;;;327.63;74.40;;;;;;;0.43;67.47;100178.69;339495;29;2223;-67
2022/01/28 00:45:55;;;;;;;325.67;74.30;;;;;;;0.41;68.16;100176.13;342190;28;2128;-67
2022/01/28 00:46:05;;;;;;;328.55;74.95;;;;;;;0.42;67.70;100174.41;340895;29;917;-67
2022/01/28 00:46:16;;;;;;;327.88;74.57;;;;;;;0.41;67.58;100173.53;340977;28;2062;-67
2022/01/28 00:46:26;;;;;;;328.77;75.00;;;;;;;0.41;68.00;100175.25;338329;29;2063;-68
2022/01/28 00:46:36;;;;;;;328.77;74.77;;;;;;;0.37;67.84;100176.06;338104;29;2261;-68
2022/01/28 00:46:47;;;;;;;329.53;75.57;;;;;;;0.41;68.18;100173.53;338271;29;2003;-68
2022/01/28 00:46:57;;;;;;;329.87;75.77;;;;;;;0.41;68.10;100170.09;339503;29;2033;-68
2022/01/28 00:47:08;;;;;;;328.38;75.38;;;;;;;0.43;67.52;100177.00;337224;29;2075;-68
2022/01/28 00:47:18;;;;;;;326.93;74.70;;;;;;;0.43;68.25;100176.13;338361;29;2568;-68
2022/01/28 00:47:28;;;;;;;325.67;73.95;;;;;;;0.42;67.87;100175.25;338325;29;1644;-68
2022/01/28 00:47:39;;;;;;;327.30;75.47;;;;;;;0.42;67.99;100177.84;339668;29;2001;-67
2022/01/28 00:47:49;;;;;;;328.23;75.95;;;;;;;0.43;68.24;100173.56;342490;28;1686;-67
2022/01/28 00:48:00;;;;;;;328.63;77.07;;;;;;;0.40;67.38;100171.81;340861;29;1140;-67
2022/01/28 00:48:10;;;;;;;329.15;76.85;;;;;;;0.37;67.80;100176.94;341062;29;2096;-68
2022/01/28 00:48:21;;;;;;;329.43;76.87;;;;;;;0.37;67.92;100176.06;343738;28;2200;-68
2022/01/28 00:48:31;;;;;;;328.38;76.00;;;;;;;0.36;67.58;100180.34;343636;28;1677;-68
2022/01/28 00:48:42;;;;;;;327.10;75.53;;;;;;;0.37;67.85;100174.34;340269;29;1716;-68
2022/01/28 00:48:52;;;;;;;329.17;75.90;;;;;;;0.35;68.52;100178.63;339751;29;1630;-67
2022/01/28 00:49:02;;;;;;;329.17;75.73;;;;;;;0.35;67.70;100175.19;341351;28;1682;-67
2022/01/28 00:49:13;;;;;;;329.60;75.57;;;;;;;0.36;68.20;100172.63;341016;29;2015;-68
2022/01/28 00:49:23;;;;;;;328.07;75.13;;;;;;;0.37;67.68;100176.06;339716;29;1649;-66
2022/01/28 00:49:34;;;;;;;326.27;74.55;;;;;;;0.37;68.05;100178.66;340927;28;1744;-66
2022/01/28 00:49:44;;;;;;;324.90;74.35;;;;;;;0.37;67.87;100176.94;339620;29;2016;-66
2022/01/28 00:49:55;;;;;;;324.20;74.43;;;;;;;0.33;68.39;100176.03;339631;29;2241;-66
2022/01/28 00:50:05;;;;;;;326.90;76.43;;;;;;;0.35;68.34;100177.75;338447;29;1362;-67
2022/01/28 00:50:16;;;;;;;328.73;77.97;;;;;;;0.36;68.40;100175.22;342306;28;2460;-67
2022/01/28 00:50:26;;;;;;;328.60;76.93;;;;;;;0.35;68.04;100178.63;342286;28;1634;-67
2022/01/28 00:50:37;;;;;;;328.50;76.20;;;;;;;0.33;67.72;100178.63;342333;28;1577;-67
2022/01/28 00:50:47;;;;;;;331.50;76.93;;;;;;;0.37;68.38;100178.66;339042;29;1810;-67
2022/01/28 00:50:57;;;;;;;331.17;77.73;;;;;;;0.36;67.74;100174.34;339604;29;2250;-67
2022/01/28 00:51:08;;;;;;;328.77;75.95;;;;;;;0.35;67.46;100176.06;338397;29;2297;-66
2022/01/28 00:51:18;;;;;;;324.00;74.03;;;;;;;0.33;67.95;100178.63;337988;29;1439;-66
2022/01/28 00:51:29;;;;;;;324.88;73.82;;;;;;;0.32;68.35;100173.44;340832;29;2026;-66
2022/01/28 00:51:39;;;;;;;323.90;73.63;;;;;;;0.31;68.33;100179.44;341119;29;2317;-67
2022/01/28 00:51:49;;;;;;;325.13;73.18;;;;;;;0.31;68.15;100174.31;339562;28;1559;-66
2022/01/28 00:52:00;;;;;;;325.40;73.90;;;;;;;0.29;68.07;100170.84;340948;29;1663;-66
2022/01/28 00:52:10;;;;;;;326.88;75.18;;;;;;;0.27;68.73;100170.84;342353;28;2225;-67
2022/01/28 00:52:20;;;;;;;327.93;75.67;;;;;;;0.28;68.70;100175.13;342300;28;1617;-67
2022/01/28 00:52:31;;;;;;;330.55;75.28;;;;;;;0.26;67.92;100174.25;343576;28;2082;-67
2022/01/28 00:52:41;;;;;;;329.10;75.13;;;;;;;0.26;68.24;100174.25;342313;28;1461;-66
2022/01/28 00:52:52;;;;;;;326.67;74.90;;;;;;;0.25;68.81;100172.53;337051;29;1349;-67
2022/01/28 00:53:02;;;;;;;325.20;75.33;;;;;;;0.26;68.87;100174.25;340845;29;2172;-67
2022/01/28 00:53:13;;;;;;;326.03;75.37;;;;;;;0.26;68.40;100171.69;341032;29;1525;-66
2022/01/28 00:53:23;;;;;;;326.87;75.57;;;;;;;0.27;68.80;100170.84;339585;29;1667;-66
2022/01/28 00:53:33;;;;;;;325.70;75.23;;;;;;;0.28;68.25;100169.97;339647;29;895;-66
2022/01/28 00:53:44;;;;;;;328.60;76.30;;;;;;;0.28;68.20;100172.56;339513;29;1345;-66
2022/01/28 00:53:54;;;;;;;329.93;77.57;;;;;;;0.29;67.74;100168.28;339424;29;1928;-66
2022/01/28 00:54:04;;;;;;;335.30;79.75;;;;;;;0.30;68.27;100176.00;341553;28;1479;-66
2022/01/28 00:54:17;;;;;;;333.57;78.17;;;;;;;0.31;68.26;100167.44;340975;29;1896;-67
2022/01/28 00:54:27;;;;;;;332.40;76.38;;;;;;;0.33;68.34;100168.31;340873;29;1861;-67
2022/01/28 00:54:38;;;;;;;327.97;75.87;;;;;;;0.35;67.75;100167.47;341044;29;2077;-67
2022/01/28 00:54:48;;;;;;;324.13;74.43;;;;;;;0.33;68.23;100170.03;340901;29;1604;-67
2022/01/28 00:54:58;;;;;;;323.60;73.97;;;;;;;0.32;67.67;100160.59;339603;29;2019;-67
2022/01/28 00:55:09;;;;;;;323.05;73.38;;;;;;;0.33;68.58;100170.91;342172;28;1981;-66
2022/01/28 00:55:19;;;;;;;326.00;75.17;;;;;;;0.30;68.01;100160.56;342305;28;964;-66
2022/01/28 00:55:30;;;;;;;325.88;75.85;;;;;;;0.30;68.05;100160.56;340943;29;2266;-66
2022/01/28 00:55:40;;;;;;;326.17;75.07;;;;;;;0.29;68.00;100158.84;340922;29;1459;-66
2022/01/28 00:55:52;;;;;;;324.17;74.45;;;;;;;0.29;68.26;100158.84;340836;29;1385;-66
2022/01/28 00:56:03;;;;;;;326.80;74.80;;;;;;;0.28;67.93;100167.41;340924;29;941;-67
2022/01/28 00:56:13;;;;;;;327.30;76.18;;;;;;;0.26;67.75;100157.94;340977;29;2163;-67
2022/01/28 00:56:24;;;;;;;325.83;74.40;;;;;;;0.25;68.30;100167.38;340993;29;2074;-67
2022/01/28 00:56:34;;;;;;;324.30;74.90;;;;;;;0.25;67.97;100159.66;339540;29;976;-67
2022/01/28 00:56:45;;;;;;;324.40;74.30;;;;;;;0.24;67.81;100155.34;336970;29;2163;-66
2022/01/28 00:56:56;;;;;;;324.70;74.60;;;;;;;0.27;68.20;100152.81;338252;29;2132;-66
2022/01/28 00:57:06;;;;;;;325.38;73.85;;;;;;;0.27;68.11;100157.09;339763;29;949;-67
2022/01/28 00:57:16;;;;;;;324.23;73.53;;;;;;;0.25;67.78;100162.22;342152;28;2249;-66
2022/01/28 00:57:27;;;;;;;325.95;74.47;;;;;;;0.27;68.28;100164.81;343531;28;2012;-66
2022/01/28 00:57:37;;;;;;;325.87;74.50;;;;;;;0.26;68.19;100161.38;342318;28;1776;-66
2022/01/28 00:57:48;;;;;;;327.77;75.32;;;;;;;0.26;67.92;100158.81;341040;29;1322;-66
2022/01/28 00:57:58;;;;;;;328.17;74.40;;;;;;;0.25;68.09;100162.22;342364;28;1586;-66
2022/01/28 00:58:08;;;;;;;328.52;73.28;;;;;;;0.25;67.73;100157.09;339666;29;1794;-66
2022/01/28 00:58:19;;;;;;;327.97;71.83;;;;;;;0.25;67.44;100162.22;339836;29;1217;-66
2022/01/28 00:58:29;;;;;;;325.47;71.43;;;;;;;0.28;68.49;100149.41;339719;29;2015;-66
2022/01/28 00:58:40;;;;;;;323.47;71.83;;;;;;;0.27;68.31;100155.38;338352;29;2108;-66
2022/01/28 00:58:50;;;;;;;322.60;71.97;;;;;;;0.27;67.89;100159.66;338331;29;1197;-67
2022/01/28 00:59:00;;;;;;;322.87;72.20;;;;;;;0.27;67.86;100157.97;340802;28;1444;-67
2022/01/28 00:59:11;;;;;;;322.13;72.17;;;;;;;0.27;68.02;100160.53;342881;28;2109;-67
2022/01/28 00:59:21;;;;;;;322.00;72.43;;;;;;;0.27;67.67;100160.53;345183;28;829;-67
2022/01/28 00:59:32;;;;;;;323.42;73.20;;;;;;;0.28;68.21;100157.13;339706;29;968;-67
2022/01/28 00:59:42;;;;;;;323.80;73.43;;;;;;;0.29;67.99;100156.25;340229;29;2011;-67
2022/01/28 00:59:53;;;;;;;323.00;72.80;;;;;;;0.31;68.08;100156.28;341014;29;1622;-67
2022/01/28 01:00:05;;;;;;;320.27;71.87;;;;;;;0.32;67.36;100164.03;342421;28;1036;-67
2022/01/28 01:00:16;;;;;;;319.00;72.07;;;;;;;0.29;67.71;100157.97;339484;29;2186;-67
2022/01/28 01:00:26;;;;;;;321.63;73.78;;;;;;;0.28;67.97;100161.41;342361;28;2034;-67
2022/01/28 01:00:37;;;;;;;323.33;73.93;;;;;;;0.28;67.95;100157.13;341114;29;1668;-67
2022/01/28 01:00:47;;;;;;;324.58;73.45;;;;;;;0.28;67.60;100157.13;339582;29;2264;-66
2022/01/28 01:00:57;;;;;;;323.60;72.43;;;;;;;0.28;67.76;100157.13;339759;29;1323;-67
2022/01/28 01:01:08;;;;;;;324.67;72.43;;;;;;;0.29;68.25;100158.84;340887;29;1984;-66
2022/01/28 01:01:18;;;;;;;321.47;71.50;;;;;;;0.30;67.14;100157.13;339852;29;991;-67
2022/01/28 01:01:29;;;;;;;320.07;70.93;;;;;;;0.30;68.38;100157.13;340325;29;2283;-67
2022/01/28 01:01:39;;;;;;;319.02;70.78;;;;;;;0.30;67.64;100152.84;338467;29;1893;-68
2022/01/28 01:01:50;;;;;;;319.35;71.15;;;;;;;0.31;67.97;100156.28;341217;29;944;-67
2022/01/28 01:02:00;;;;;;;322.67;72.90;;;;;;;0.32;68.09;100158.00;341050;29;1814;-67
2022/01/28 01:02:11;;;;;;;323.55;73.15;;;;;;;0.30;67.69;100155.41;338784;29;1918;-67
2022/01/28 01:02:21;;;;;;;323.50;73.13;;;;;;;0.31;68.00;100154.56;341120;29;1220;-67
2022/01/28 01:02:31;;;;;;;320.73;72.00;;;;;;;0.30;67.63;100160.56;338582;28;2044;-67
2022/01/28 01:02:42;;;;;;;320.53;71.37;;;;;;;0.32;67.99;100152.84;341108;29;2158;-67
2022/01/28 01:02:52;;;;;;;324.30;72.53;;;;;;;0.33;67.46;100158.03;341078;29;1263;-67
2022/01/28 01:03:03;;;;;;;327.33;72.63;;;;;;;0.32;67.60;100151.16;340931;28;1648;-67
2022/01/28 01:03:13;;;;;;;327.92;73.22;;;;;;;0.33;67.96;100160.59;341027;29;1799;-67
2022/01/28 01:03:23;;;;;;;325.57;72.70;;;;;;;0.33;67.43;100155.44;341209;29;1021;-67
2022/01/28 01:03:34;;;;;;;323.05;72.72;;;;;;;0.29;67.74;100153.69;341185;29;898;-67
2022/01/28 01:03:44;;;;;;;324.37;73.83;;;;;;;0.30;67.87;100159.72;339776;29;2137;-67
2022/01/28 01:03:58;;;;;;;327.53;75.03;;;;;;;0.27;67.89;100155.38;341013;29;1757;-67
2022/01/28 01:04:08;;;;;;;327.42;74.82;;;;;;;0.29;67.57;100153.69;342438;28;2037;-67
2022/01/28 01:04:19;;;;;;;325.98;73.90;;;;;;;0.28;67.46;100151.97;342513;28;1014;-67
2022/01/28 01:04:29;;;;;;;325.87;74.20;;;;;;;0.26;67.99;100153.66;342313;28;1424;-67
2022/01/28 01:04:41;;;;;;;328.15;75.13;;;;;;;0.27;68.30;100155.38;342314;28;2133;-67
2022/01/28 01:04:51;;;;;;;331.48;76.50;;;;;;;0.28;67.86;100154.53;341117;29;895;-67
2022/01/28 01:05:01;;;;;;;333.02;77.22;;;;;;;0.28;67.74;100151.09;339651;29;1678;-67
2022/01/28 01:05:12;;;;;;;331.00;75.67;;;;;;;0.28;67.36;100151.09;338853;29;2274;-67
2022/01/28 01:05:23;;;;;;;328.52;74.82;;;;;;;0.29;67.22;100153.69;342560;28;980;-67
2022/01/28 01:05:34;;;;;;;323.98;73.35;;;;;;;0.31;67.34;100149.44;342337;28;2404;-67
2022/01/28 01:05:44;;;;;;;324.35;73.25;;;;;;;0.32;67.88;100153.72;343200;28;2052;-67
2022/01/28 01:05:55;;;;;;;323.20;72.63;;;;;;;0.32;68.19;100151.16;342306;28;1997;-67
2022/01/28 01:06:05;;;;;;;324.97;73.30;;;;;;;0.32;68.12;100148.56;342510;28;963;-67
2022/01/28 01:06:17;;;;;;;326.17;72.87;;;;;;;0.35;67.18;100154.59;340725;28;2035;-67
2022/01/28 01:06:28;;;;;;;326.58;73.32;;;;;;;0.33;68.05;100150.31;341076;28;1651;-67
2022/01/28 01:06:38;;;;;;;328.57;73.77;;;;;;;0.35;68.24;100150.31;341015;29;1163;-67
2022/01/28 01:06:49;;;;;;;329.38;74.22;;;;;;;0.35;67.64;100152.03;339789;29;897;-67
2022/01/28 01:07:01;;;;;;;327.73;74.10;;;;;;;0.31;67.30;100146.84;340539;29;1940;-67
2022/01/28 01:07:11;;;;;;;324.42;73.30;;;;;;;0.33;67.78;100150.31;343722;28;1714;-67
2022/01/28 01:07:21;;;;;;;323.77;73.47;;;;;;;0.30;67.93;100150.28;342446;28;961;-67
2022/01/28 01:07:32;;;;;;;323.40;73.07;;;;;;;0.32;67.72;100152.84;341118;29;2076;-67
2022/01/28 01:07:42;;;;;;;323.20;73.85;;;;;;;0.30;67.49;100155.41;341044;29;1919;-67
2022/01/28 01:07:53;;;;;;;323.37;73.83;;;;;;;0.32;67.96;100152.84;342521;28;893;-67
2022/01/28 01:08:04;;;;;;;325.55;74.68;;;;;;;0.31;67.98;100154.56;341083;28;2234;-67
2022/01/28 01:08:14;;;;;;;326.30;74.63;;;;;;;0.32;67.45;100153.72;341786;28;2042;-67
2022/01/28 01:08:24;;;;;;;324.63;74.03;;;;;;;0.30;67.65;100155.41;342455;28;851;-67
2022/01/28 01:08:36;;;;;;;321.97;72.60;;;;;;;0.29;67.83;100151.13;340984;29;938;-67
2022/01/28 01:08:47;;;;;;;325.70;73.35;;;;;;;0.28;68.23;100151.97;341012;29;2049;-67
2022/01/28 01:08:57;;;;;;;329.33;75.40;;;;;;;0.29;67.53;100150.25;342286;28;1859;-66
2022/01/28 01:09:07;;;;;;;330.95;77.25;;;;;;;0.28;67.82;100151.97;342470;28;867;-66
2022/01/28 01:09:18;;;;;;;332.60;78.27;;;;;;;0.27;67.39;100155.38;341061;29;1827;-66
2022/01/28 01:09:28;;;;;;;334.55;76.68;;;;;;;0.27;67.90;100150.25;338349;29;2474;-66
2022/01/28 01:09:39;;;;;;;330.97;74.67;;;;;;;0.26;67.28;100153.66;338518;29;870;-66
2022/01/28 01:09:49;;;;;;;325.70;72.97;;;;;;;0.24;67.70;100147.63;338446;29;2068;-66
2022/01/28 01:10:00;;;;;;;322.85;73.00;;;;;;;0.25;68.27;100146.78;339764;29;2137;-66
2022/01/28 01:10:10;;;;;;;321.43;72.93;;;;;;;0.26;67.77;100148.53;339760;29;2203;-66
2022/01/28 01:10:23;;;;;;;321.13;73.40;;;;;;;0.27;67.45;100157.09;339850;29;845;-66
2022/01/28 01:10:34;;;;;;;322.42;74.25;;;;;;;0.27;68.19;100149.38;341083;28;2096;-67
2022/01/28 01:10:44;;;;;;;325.13;74.75;;;;;;;0.29;68.05;100153.69;339669;28;1737;-67
2022/01/28 01:10:55;;;;;;;324.07;73.40;;;;;;;0.29;67.47;100147.69;339610;29;1319;-67
2022/01/28 01:11:06;;;;;;;325.07;73.40;;;;;;;0.30;67.82;100158.00;338877;29;989;-67
2022/01/28 01:11:21;;;;;;;323.90;72.88;;;;;;;0.29;67.67;100152.84;337871;29;2208;-67
2022/01/28 01:11:32;;;;;;;322.20;72.70;;;;;;;0.27;67.53;100146.81;338340;29;2060;-67
2022/01/28 01:11:42;;;;;;;320.88;72.75;;;;;;;0.27;68.17;100151.94;341074;29;1954;-67
2022/01/28 01:11:53;;;;;;;322.23;71.53;;;;;;;0.28;68.06;100151.97;341103;29;1220;-67
2022/01/28 01:12:04;;;;;;;325.27;72.50;;;;;;;0.28;67.73;100145.97;341097;29;2118;-67
2022/01/28 01:12:18;;;;;;;325.48;72.93;;;;;;;0.27;67.97;100152.81;341209;28;1965;-67
2022/01/28 01:12:30;;;;;;;321.83;72.43;;;;;;;0.26;68.16;100150.22;341081;29;1447;-67
2022/01/28 01:12:44;;;;;;;322.98;72.82;;;;;;;0.26;68.30;100148.53;340992;29;1919;-67
2022/01/28 01:12:55;;;;;;;323.67;73.15;;;;;;;0.24;67.29;100145.06;343503;28;1709;-67
2022/01/28 01:13:05;;;;;;;325.33;74.40;;;;;;;0.25;68.11;100145.94;338423;29;2188;-67
2022/01/28 01:13:15;;;;;;;326.85;74.47;;;;;;;0.23;68.52;100153.63;338434;29;2063;-67
2022/01/28 01:13:26;;;;;;;329.00;76.23;;;;;;;0.25;68.10;100141.66;338326;29;2181;-67
2022/01/28 01:13:39;;;;;;;328.65;75.95;;;;;;;0.24;68.26;100145.06;342533;28;1008;-67
2022/01/28 01:13:50;;;;;;;333.33;78.78;;;;;;;0.23;67.77;100143.34;342261;28;2125;-67
2022/01/28 01:14:01;;;;;;;332.15;78.03;;;;;;;0.24;67.45;100150.22;341020;29;2332;-67
2022/01/28 01:14:12;;;;;;;331.13;76.43;;;;;;;0.24;68.15;100150.22;341034;29;2178;-67
2022/01/28 01:14:22;;;;;;;325.38;73.85;;;;;;;0.21;67.71;100137.31;339860;29;916;-67
2022/01/28 01:14:33;;;;;;;324.80;73.13;;;;;;;0.24;68.32;100144.19;343652;28;2055;-67
2022/01/28 01:14:43;;;;;;;324.98;74.18;;;;;;;0.22;67.51;100141.63;342367;28;2306;-67
2022/01/28 01:14:54;;;;;;;325.30;74.35;;;;;;;0.22;67.55;100141.63;342351;28;929;-67
2022/01/28 01:15:05;;;;;;;323.63;74.13;;;;;;;0.22;68.23;100139.03;342427;28;1579;-67
2022/01/28 01:15:19;;;;;;;322.98;73.07;;;;;;;0.22;67.81;100144.19;342389;28;2072;-67